Time;durP1;ratioP1;P1;durP2;ratioP2;P2;SDS_P1;SDS_P2;PMS_P1;PMS_P2;Temp;Humidity;BMP_temperature;BMP_pressure;BME280_temperature;BME280_humidity;BME280_pressure;Samples;Min_cycle;Max_cycle;Signal;HPM_P1;HPM_P2
2021/11/05 00:00:25;;;;;;;8.30;3.83;;;7.90;99.90;;;;;;5023103;28;20049;-79
2021/11/05 00:02:54;;;;;;;8.48;3.90;;;8.00;99.90;;;;;;5022684;28;20030;-82
2021/11/05 00:05:21;;;;;;;7.43;3.88;;;8.00;99.90;;;;;;5023481;28;20037;-82
2021/11/05 00:07:47;;;;;;;8.48;3.90;;;8.00;99.90;;;;;;5024834;28;20037;-80
2021/11/05 00:10:13;;;;;;;11.40;4.28;;;8.00;99.90;;;;;;5023196;28;20030;-82
2021/11/05 00:12:38;;;;;;;12.95;3.97;;;8.00;99.90;;;;;;5023391;28;20046;-76
2021/11/05 00:15:05;;;;;;;9.18;4.07;;;8.00;99.90;;;;;;5024970;28;20033;-80
2021/11/05 00:17:32;;;;;;;8.73;4.28;;;8.00;99.90;;;;;;5024821;28;20034;-80
2021/11/05 00:19:57;;;;;;;9.48;4.57;;;8.00;99.90;;;;;;5023650;28;20390;-80
2021/11/05 00:22:23;;;;;;;11.55;5.10;;;8.00;99.90;;;;;;5024377;28;20038;-81
2021/11/05 00:24:48;;;;;;;15.23;6.00;;;8.00;99.90;;;;;;5024402;28;20053;-80
2021/11/05 00:27:14;;;;;;;11.93;4.28;;;8.00;99.90;;;;;;5024347;28;20034;-79
2021/11/05 00:29:42;;;;;;;9.80;4.20;;;8.00;99.90;;;;;;5022911;28;20077;-81
2021/11/05 00:32:08;;;;;;;9.07;4.13;;;8.00;99.90;;;;;;5022621;28;20018;-78
2021/11/05 00:34:34;;;;;;;10.80;4.28;;;8.00;99.90;;;;;;5023373;28;20089;-78
2021/11/05 00:37:00;;;;;;;19.55;5.85;;;8.00;99.90;;;;;;5040638;28;20037;-78
2021/11/05 00:39:25;;;;;;;13.90;5.07;;;8.00;99.90;;;;;;5042984;28;20049;-81
2021/11/05 00:41:51;;;;;;;10.07;4.38;;;8.00;99.90;;;;;;5042733;28;20455;-82
2021/11/05 00:44:16;;;;;;;11.40;5.22;;;8.00;99.90;;;;;;5042995;28;20080;-80
2021/11/05 00:46:42;;;;;;;8.20;4.00;;;8.00;99.90;;;;;;5042588;28;20041;-84
2021/11/05 00:49:07;;;;;;;11.95;5.07;;;8.00;99.90;;;;;;5042911;28;20041;-80
2021/11/05 00:51:33;;;;;;;9.35;4.40;;;8.00;99.90;;;;;;5042783;28;20030;-81
2021/11/05 00:53:59;;;;;;;18.52;6.10;;;8.00;99.90;;;;;;5042822;28;20035;-81
2021/11/05 00:56:24;;;;;;;10.60;4.60;;;8.00;99.90;;;;;;5044046;28;20025;-81
2021/11/05 00:58:50;;;;;;;10.93;5.50;;;8.00;99.90;;;;;;5042585;28;20028;-80
2021/11/05 01:01:16;;;;;;;8.70;4.65;;;8.00;99.90;;;;;;5042677;28;20551;-81
2021/11/05 01:03:41;;;;;;;14.63;4.32;;;8.00;99.90;;;;;;5042680;28;20025;-82
2021/11/05 01:06:07;;;;;;;11.82;5.40;;;8.00;99.90;;;;;;5043822;28;20030;-80
2021/11/05 01:08:33;;;;;;;10.95;4.97;;;8.00;99.90;;;;;;5044153;28;20025;-78
2021/11/05 01:10:59;;;;;;;15.25;4.95;;;8.00;99.90;;;;;;5042933;28;20121;-82
2021/11/05 01:13:25;;;;;;;24.48;4.65;;;8.00;99.90;;;;;;5045673;28;20056;-80
2021/11/05 01:15:51;;;;;;;9.93;4.70;;;7.90;99.90;;;;;;5047733;28;20036;-81
2021/11/05 01:18:18;;;;;;;12.60;4.43;;;7.90;99.90;;;;;;5047433;28;20029;-82
2021/11/05 01:20:44;;;;;;;8.35;4.18;;;8.00;99.90;;;;;;5047316;28;20474;-81
2021/11/05 01:23:09;;;;;;;14.23;4.85;;;7.90;99.90;;;;;;5047068;28;20026;-77
2021/11/05 01:25:35;;;;;;;13.15;4.97;;;8.00;99.90;;;;;;5047139;28;20033;-81
2021/11/05 01:28:01;;;;;;;12.63;4.28;;;7.90;99.90;;;;;;5047312;28;20057;-81
2021/11/05 01:30:27;;;;;;;9.88;4.32;;;8.00;99.90;;;;;;5062804;28;20040;-82
2021/11/05 01:32:53;;;;;;;17.60;6.00;;;8.00;99.90;;;;;;5047362;28;20029;-82
2021/11/05 01:35:19;;;;;;;15.80;5.15;;;8.00;99.90;;;;;;5037974;28;20081;-82
2021/11/05 01:37:45;;;;;;;19.83;5.50;;;8.00;99.90;;;;;;5027862;28;20396;-79
2021/11/05 01:40:13;;;;;;;10.93;5.03;;;7.90;99.90;;;;;;5032111;28;20478;-79
2021/11/05 01:42:39;;;;;;;12.05;5.63;;;7.90;99.90;;;;;;5025873;28;20120;-77
2021/11/05 01:45:07;;;;;;;12.18;5.07;;;7.90;99.90;;;;;;5025863;28;20030;-84
2021/11/05 01:47:36;;;;;;;12.88;6.18;;;7.90;99.90;;;;;;5027190;28;20022;-79
2021/11/05 01:50:03;;;;;;;14.18;4.60;;;8.00;99.90;;;;;;5027358;28;20026;-80
2021/11/05 01:52:28;;;;;;;13.18;5.20;;;7.90;99.90;;;;;;5025984;28;20026;-82
2021/11/05 01:54:54;;;;;;;14.45;6.20;;;7.90;99.90;;;;;;5026861;28;20056;-80
2021/11/05 01:57:20;;;;;;;9.32;5.10;;;7.90;99.90;;;;;;5025487;28;20114;-80
2021/11/05 01:59:51;;;;;;;10.50;4.97;;;7.90;99.90;;;;;;5026952;28;20030;-81
2021/11/05 02:02:18;;;;;;;15.05;5.57;;;7.90;99.90;;;;;;5026710;28;20095;-80
2021/11/05 02:04:43;;;;;;;9.57;5.22;;;7.90;99.90;;;;;;5029719;28;20437;-80
2021/11/05 02:07:13;;;;;;;17.58;4.78;;;7.90;99.90;;;;;;5037301;28;20029;-79
2021/11/05 02:09:40;;;;;;;10.93;5.45;;;7.90;99.90;;;;;;5037841;28;20026;-79
2021/11/05 02:12:06;;;;;;;11.43;4.68;;;7.90;99.90;;;;;;5025029;28;20072;-78
2021/11/05 02:14:33;;;;;;;12.45;4.47;;;7.90;99.90;;;;;;5025145;28;20017;-79
2021/11/05 02:17:01;;;;;;;17.73;5.35;;;7.80;99.90;;;;;;5025492;28;20030;-77
2021/11/05 02:19:30;;;;;;;14.82;6.40;;;7.90;99.90;;;;;;5025374;28;20025;-81
2021/11/05 02:21:58;;;;;;;9.07;4.95;;;7.90;99.90;;;;;;5026549;28;20038;-80
2021/11/05 02:24:25;;;;;;;12.27;5.22;;;7.90;99.90;;;;;;5023641;28;20030;-81
2021/11/05 02:26:52;;;;;;;13.18;5.32;;;7.80;99.90;;;;;;5025091;28;20475;-81
2021/11/05 02:29:18;;;;;;;13.93;4.38;;;7.80;99.90;;;;;;5026069;28;20066;-80
2021/11/05 02:31:45;;;;;;;17.48;5.45;;;7.90;99.90;;;;;;5024769;28;20475;-80
2021/11/05 02:34:11;;;;;;;22.33;5.07;;;7.90;99.90;;;;;;5025766;28;20072;-81
2021/11/05 02:36:37;;;;;;;9.27;4.25;;;8.00;99.90;;;;;;5036678;28;20026;-83
2021/11/05 02:39:07;;;;;;;12.25;4.18;;;7.90;99.90;;;;;;5057893;28;20021;-81
2021/11/05 02:41:35;;;;;;;9.10;4.50;;;7.90;99.90;;;;;;5040364;28;20038;-83
2021/11/05 02:44:02;;;;;;;16.42;5.40;;;7.90;99.90;;;;;;5046157;28;20104;-80
2021/11/05 02:46:28;;;;;;;10.98;4.60;;;7.90;99.90;;;;;;5046040;28;20036;-78
2021/11/05 02:48:57;;;;;;;11.95;4.15;;;7.90;99.90;;;;;;5061131;28;20109;-75
2021/11/05 02:51:23;;;;;;;10.88;4.28;;;7.80;99.90;;;;;;5044529;28;20037;-77
2021/11/05 02:53:48;;;;;;;13.13;5.18;;;7.90;99.90;;;;;;5044331;28;20171;-77
2021/11/05 02:56:14;;;;;;;16.23;4.60;;;7.80;99.90;;;;;;5045693;28;20108;-77
2021/11/05 02:58:40;;;;;;;9.60;4.30;;;7.80;99.90;;;;;;5045634;28;20022;-75
2021/11/05 03:01:06;;;;;;;16.85;3.20;;;7.80;99.90;;;;;;5061012;28;20099;-77
2021/11/05 03:03:32;;;;;;;9.27;4.18;;;7.80;99.90;;;;;;5045808;28;20071;-77
2021/11/05 03:06:00;;;;;;;12.88;5.07;;;7.80;99.90;;;;;;5045560;28;20029;-78
2021/11/05 03:08:26;;;;;;;10.13;4.60;;;7.80;99.90;;;;;;5045347;28;20025;-77
2021/11/05 03:10:53;;;;;;;11.00;4.35;;;7.80;99.90;;;;;;5059449;28;20056;-76
2021/11/05 03:13:19;;;;;;;11.73;4.82;;;7.80;99.90;;;;;;5045315;28;20089;-79
2021/11/05 03:15:45;;;;;;;11.63;4.13;;;7.80;99.90;;;;;;5045256;28;20026;-79
2021/11/05 03:18:20;;;;;;;13.75;3.97;;;7.70;99.90;;;;;;5045356;28;20097;-80
2021/11/05 03:20:46;;;;;;;10.60;4.38;;;7.70;99.90;;;;;;5045152;28;20124;-79
2021/11/05 03:23:14;;;;;;;11.52;5.15;;;7.70;99.90;;;;;;5045077;28;20037;-80
2021/11/05 03:25:40;;;;;;;13.77;5.50;;;7.70;99.90;;;;;;5045062;28;20072;-79
2021/11/05 03:28:05;;;;;;;9.77;5.00;;;7.70;99.90;;;;;;5043537;28;20050;-76
2021/11/05 03:30:32;;;;;;;8.05;4.03;;;7.80;99.90;;;;;;5045021;28;20478;-78
2021/11/05 03:32:58;;;;;;;16.20;5.18;;;7.70;99.90;;;;;;5044827;28;20052;-80
2021/11/05 03:35:24;;;;;;;13.23;4.88;;;7.70;99.90;;;;;;5040120;28;20073;-78
2021/11/05 03:37:50;;;;;;;17.13;4.93;;;7.80;99.90;;;;;;5030604;28;20026;-77
2021/11/05 03:40:22;;;;;;;10.20;4.47;;;7.80;99.90;;;;;;5025236;28;20022;-79
2021/11/05 03:42:48;;;;;;;12.90;4.97;;;7.80;99.90;;;;;;5040233;28;20026;-79
2021/11/05 03:45:16;;;;;;;12.73;4.05;;;7.80;99.90;;;;;;5045028;28;20128;-78
2021/11/05 03:47:42;;;;;;;10.63;5.05;;;7.80;99.90;;;;;;5043721;28;20033;-78
2021/11/05 03:50:08;;;;;;;10.30;4.50;;;7.80;99.90;;;;;;5033036;28;20014;-79
2021/11/05 03:52:34;;;;;;;15.25;4.45;;;7.80;99.90;;;;;;5030014;28;20033;-78
2021/11/05 03:55:00;;;;;;;8.95;4.13;;;7.80;99.90;;;;;;5024728;28;20030;-78
2021/11/05 03:57:26;;;;;;;12.90;4.72;;;7.70;99.90;;;;;;5024834;28;20045;-79
2021/11/05 03:59:51;;;;;;;6.13;3.55;;;7.70;99.90;;;;;;5024804;28;20041;-77
2021/11/05 04:02:17;;;;;;;12.40;4.35;;;7.70;99.90;;;;;;5024694;28;20048;-78
2021/11/05 04:04:43;;;;;;;7.70;3.85;;;7.70;99.90;;;;;;5024623;28;20048;-78
2021/11/05 04:07:09;;;;;;;11.48;4.85;;;7.70;99.90;;;;;;5035118;28;20028;-77
2021/11/05 04:09:35;;;;;;;10.90;4.07;;;7.70;99.90;;;;;;5044478;28;20474;-79
2021/11/05 04:12:04;;;;;;;10.88;3.65;;;7.70;99.90;;;;;;5044588;28;20025;-78
2021/11/05 04:14:30;;;;;;;7.97;4.10;;;7.70;99.90;;;;;;5044793;28;20029;-78
2021/11/05 04:16:55;;;;;;;13.25;3.78;;;7.70;99.90;;;;;;5044352;28;20025;-79
2021/11/05 04:19:21;;;;;;;8.90;4.22;;;7.80;99.90;;;;;;5059850;28;20072;-79
2021/11/05 04:21:47;;;;;;;7.82;4.10;;;7.80;99.90;;;;;;5059631;28;20031;-80
2021/11/05 04:24:13;;;;;;;6.93;3.15;;;7.90;99.90;;;;;;5044158;28;20030;-77
2021/11/05 04:26:39;;;;;;;8.23;3.63;;;7.80;99.90;;;;;;5043839;28;20049;-79
2021/11/05 04:29:05;;;;;;;8.63;3.55;;;7.80;99.90;;;;;;5044162;28;20057;-77
2021/11/05 04:31:30;;;;;;;9.38;3.08;;;7.80;99.90;;;;;;5044561;28;20017;-77
2021/11/05 04:33:56;;;;;;;6.40;3.80;;;7.80;99.90;;;;;;5030509;28;20030;-76
2021/11/05 04:36:28;;;;;;;9.43;3.88;;;7.80;99.90;;;;;;5023345;28;20518;-74
2021/11/05 04:38:54;;;;;;;6.50;2.92;;;7.80;99.90;;;;;;5037920;28;20068;-77
2021/11/05 04:41:22;;;;;;;8.13;3.88;;;7.90;99.90;;;;;;5024458;28;20042;-73
2021/11/05 04:43:50;;;;;;;10.90;4.57;;;7.90;99.90;;;;;;5024426;28;20022;-74
2021/11/05 04:46:16;;;;;;;6.50;2.63;;;7.90;99.90;;;;;;5037108;28;20107;-74
2021/11/05 04:48:42;;;;;;;11.57;3.97;;;7.90;99.90;;;;;;5036418;28;20025;-75
2021/11/05 04:51:12;;;;;;;9.05;3.83;;;7.90;99.90;;;;;;5042190;28;20021;-76
2021/11/05 04:53:37;;;;;;;6.85;3.30;;;7.90;99.90;;;;;;5030221;28;20022;-74
2021/11/05 04:56:04;;;;;;;6.30;3.05;;;7.90;99.90;;;;;;5046818;28;20037;-74
2021/11/05 04:58:30;;;;;;;6.97;2.88;;;7.90;99.90;;;;;;5046372;28;20390;-74
2021/11/05 05:01:16;;;;;;;21.38;4.35;;;7.90;99.90;;;;;;5047717;28;20037;-73
2021/11/05 05:03:42;;;;;;;7.13;3.80;;;7.90;99.90;;;;;;5046145;28;20041;-77
2021/11/05 05:06:08;;;;;;;9.32;4.05;;;7.90;99.90;;;;;;5041909;28;20025;-75
2021/11/05 05:08:34;;;;;;;6.50;3.35;;;7.90;99.90;;;;;;5028351;28;20022;-78
2021/11/05 05:10:59;;;;;;;5.93;3.05;;;7.90;99.90;;;;;;5031381;28;20053;-75
2021/11/05 05:13:25;;;;;;;7.50;3.00;;;7.90;99.90;;;;;;5027954;28;20034;-74
2021/11/05 05:15:50;;;;;;;8.32;3.30;;;7.90;99.90;;;;;;5026351;28;20025;-73
2021/11/05 05:18:16;;;;;;;5.70;2.80;;;7.90;99.90;;;;;;5027459;28;20481;-76
2021/11/05 05:20:43;;;;;;;6.03;3.00;;;7.90;99.90;;;;;;5028951;28;20057;-75
2021/11/05 05:23:10;;;;;;;5.90;2.88;;;7.90;99.90;;;;;;5044580;28;20030;-78
2021/11/05 05:25:36;;;;;;;6.30;2.63;;;7.90;99.90;;;;;;5033399;28;20049;-78
2021/11/05 05:28:03;;;;;;;5.10;2.50;;;7.90;99.90;;;;;;5037197;28;20146;-77
2021/11/05 05:30:29;;;;;;;5.40;2.97;;;7.90;99.90;;;;;;5026353;28;20022;-77
2021/11/05 05:32:55;;;;;;;6.80;2.63;;;7.90;99.90;;;;;;5027280;28;20053;-75
2021/11/05 05:35:21;;;;;;;6.80;2.25;;;7.90;99.90;;;;;;5027551;28;20050;-75
2021/11/05 05:37:48;;;;;;;7.88;3.03;;;7.90;99.90;;;;;;5027700;28;20462;-73
2021/11/05 05:40:14;;;;;;;7.20;3.35;;;8.00;99.90;;;;;;5027450;28;20071;-75
2021/11/05 05:42:41;;;;;;;5.97;2.80;;;8.00;99.90;;;;;;5027400;28;20186;-74
2021/11/05 05:45:08;;;;;;;7.97;3.00;;;8.00;99.90;;;;;;5027788;28;20030;-75
2021/11/05 05:47:34;;;;;;;5.63;2.83;;;8.00;99.90;;;;;;5026352;28;20060;-75
2021/11/05 05:50:00;;;;;;;6.82;2.70;;;8.00;99.90;;;;;;5035068;28;20034;-76
2021/11/05 05:52:32;;;;;;;4.30;1.98;;;8.00;99.90;;;;;;5047420;28;20041;-76
2021/11/05 05:54:57;;;;;;;8.52;3.00;;;8.10;99.90;;;;;;5029586;28;20038;-75
2021/11/05 05:57:23;;;;;;;6.43;2.72;;;8.10;99.90;;;;;;5027106;28;20034;-75
2021/11/05 05:59:48;;;;;;;2.88;2.15;;;8.10;99.90;;;;;;5026955;28;20034;-75
2021/11/05 06:02:14;;;;;;;4.20;2.08;;;8.10;99.90;;;;;;5026958;28;20046;-77
2021/11/05 06:04:40;;;;;;;5.00;2.55;;;8.10;99.90;;;;;;5027021;28;20082;-75
2021/11/05 06:07:06;;;;;;;5.10;2.00;;;8.10;99.90;;;;;;5040597;28;20060;-75
2021/11/05 06:09:32;;;;;;;4.57;2.38;;;8.10;99.90;;;;;;5027078;28;20049;-73
2021/11/05 06:11:58;;;;;;;3.55;2.22;;;8.10;99.90;;;;;;5026991;28;20022;-75
2021/11/05 06:14:23;;;;;;;5.88;2.17;;;8.10;99.90;;;;;;5025375;28;20026;-73
2021/11/05 06:16:49;;;;;;;3.80;2.08;;;8.10;99.90;;;;;;5026722;28;20426;-76
2021/11/05 06:19:15;;;;;;;7.97;2.58;;;8.10;99.90;;;;;;5026860;28;20597;-77
2021/11/05 06:21:40;;;;;;;7.47;2.47;;;8.10;99.90;;;;;;5026784;28;20049;-74
2021/11/05 06:24:06;;;;;;;5.85;2.63;;;8.10;99.90;;;;;;5031383;28;20077;-75
2021/11/05 06:26:34;;;;;;;15.88;2.80;;;8.10;99.90;;;;;;5032617;28;20025;-74
2021/11/05 06:29:02;;;;;;;8.48;2.83;;;8.10;99.90;;;;;;5033503;28;20038;-77
2021/11/05 06:31:30;;;;;;;17.90;3.35;;;8.10;99.90;;;;;;5030393;28;20053;-80
2021/11/05 06:33:56;;;;;;;9.40;3.08;;;8.10;99.90;;;;;;5030127;28;20088;-76
2021/11/05 06:36:22;;;;;;;10.48;2.13;;;8.10;99.90;;;;;;5037909;28;20029;-76
2021/11/05 06:38:49;;;;;;;4.63;2.20;;;8.10;99.90;;;;;;5034865;28;20128;-75
2021/11/05 06:41:15;;;;;;;12.23;2.42;;;8.10;99.90;;;;;;5024642;28;20045;-77
2021/11/05 06:43:41;;;;;;;15.82;2.55;;;8.10;99.90;;;;;;5026095;28;20026;-77
2021/11/05 06:46:07;;;;;;;6.55;3.25;;;8.10;99.90;;;;;;5037959;28;20029;-78
2021/11/05 06:48:34;;;;;;;3.58;1.98;;;8.10;99.90;;;;;;5042005;28;20040;-78
2021/11/05 06:51:00;;;;;;;4.10;2.45;;;8.10;99.90;;;;;;5042957;28;20041;-78
2021/11/05 06:53:26;;;;;;;4.03;1.83;;;8.10;99.90;;;;;;5044603;28;20033;-76
2021/11/05 06:55:52;;;;;;;5.45;2.03;;;8.20;99.90;;;;;;5043128;28;20039;-76
2021/11/05 06:58:18;;;;;;;3.88;1.63;;;8.20;99.90;;;;;;5043805;28;20089;-74
2021/11/05 07:00:44;;;;;;;5.15;2.33;;;8.20;99.90;;;;;;5045196;28;20053;-76
2021/11/05 07:03:10;;;;;;;8.63;2.33;;;8.10;99.90;;;;;;5027064;28;20554;-75
2021/11/05 07:05:37;;;;;;;6.85;2.30;;;8.20;99.90;;;;;;5025394;28;20086;-79
2021/11/05 07:08:07;;;;;;;4.32;2.08;;;8.10;99.90;;;;;;5026336;28;20088;-80
2021/11/05 07:10:34;;;;;;;18.98;2.10;;;8.10;99.90;;;;;;5040292;28;20033;-78
2021/11/05 07:12:59;;;;;;;6.28;2.70;;;8.10;99.90;;;;;;5044499;28;20036;-76
2021/11/05 07:15:25;;;;;;;5.22;2.13;;;8.10;99.90;;;;;;5050716;28;20029;-78
2021/11/05 07:17:51;;;;;;;16.10;2.40;;;8.10;99.90;;;;;;5063850;28;20033;-77
2021/11/05 07:20:17;;;;;;;3.58;1.73;;;8.10;99.90;;;;;;5038666;28;20033;-77
2021/11/05 07:22:44;;;;;;;3.78;2.00;;;8.00;99.90;;;;;;5029852;28;20033;-77
2021/11/05 07:25:13;;;;;;;7.60;2.42;;;8.00;99.90;;;;;;5024606;28;20081;-76
2021/11/05 07:27:40;;;;;;;3.45;1.92;;;8.00;99.90;;;;;;5025056;28;20030;-76
2021/11/05 07:30:09;;;;;;;4.70;2.20;;;7.90;99.90;;;;;;5024459;28;20050;-77
2021/11/05 07:32:37;;;;;;;3.92;2.08;;;7.90;99.90;;;;;;5035523;28;20140;-78
2021/11/05 07:35:03;;;;;;;3.15;1.98;;;7.90;99.90;;;;;;5035863;28;20022;-77
2021/11/05 07:37:29;;;;;;;4.60;2.30;;;7.90;99.90;;;;;;5042224;28;20033;-77
2021/11/05 07:39:56;;;;;;;15.80;2.50;;;8.00;99.90;;;;;;5058667;28;20049;-78
2021/11/05 07:42:22;;;;;;;4.63;2.67;;;8.10;99.90;;;;;;5057055;28;20100;-75
2021/11/05 07:44:48;;;;;;;4.85;2.60;;;8.10;99.90;;;;;;5044987;28;20056;-80
2021/11/05 07:47:16;;;;;;;5.53;2.90;;;8.10;99.90;;;;;;5044948;28;20134;-76
2021/11/05 07:49:41;;;;;;;4.30;2.10;;;8.10;99.90;;;;;;5029812;28;20079;-81
2021/11/05 07:52:08;;;;;;;5.00;1.77;;;8.20;99.90;;;;;;5031726;28;20065;-74
2021/11/05 07:54:34;;;;;;;5.82;2.25;;;8.20;99.90;;;;;;5040798;28;20025;-77
2021/11/05 07:56:59;;;;;;;10.30;3.13;;;8.30;99.90;;;;;;5045099;28;20033;-79
2021/11/05 07:59:25;;;;;;;5.38;2.50;;;8.40;99.90;;;;;;5043783;28;20880;-76
2021/11/05 08:01:51;;;;;;;3.55;2.05;;;8.50;99.90;;;;;;5052686;28;20041;-77
2021/11/05 08:04:16;;;;;;;3.47;2.30;;;8.60;99.90;;;;;;5025580;28;20356;-77
2021/11/05 08:06:42;;;;;;;5.60;2.30;;;8.70;99.90;;;;;;5025346;28;20034;-78
2021/11/05 08:09:08;;;;;;;4.43;1.90;;;8.90;99.90;;;;;;5023679;28;20065;-79
2021/11/05 08:11:35;;;;;;;3.28;2.08;;;9.00;99.90;;;;;;5025169;28;20133;-76
2021/11/05 08:14:01;;;;;;;10.45;2.45;;;9.10;99.90;;;;;;5026366;28;20536;-77
2021/11/05 08:16:27;;;;;;;3.55;1.90;;;9.10;99.90;;;;;;5027107;28;20030;-77
2021/11/05 08:18:52;;;;;;;7.55;2.05;;;9.20;99.90;;;;;;5024990;28;20045;-77
2021/11/05 08:21:19;;;;;;;7.32;2.30;;;9.20;99.90;;;;;;5024722;28;20061;-79
2021/11/05 08:23:45;;;;;;;5.57;2.63;;;9.20;99.90;;;;;;5025868;28;20050;-78
2021/11/05 08:26:11;;;;;;;6.55;1.70;;;9.20;99.90;;;;;;5044839;28;20049;-81
2021/11/05 08:28:38;;;;;;;5.63;2.63;;;9.30;99.90;;;;;;5058418;28;20080;-78
2021/11/05 08:31:08;;;;;;;5.07;2.40;;;9.50;99.90;;;;;;5048670;28;20212;-81
2021/11/05 08:33:35;;;;;;;5.72;2.40;;;9.50;99.90;;;;;;5066785;28;20031;-77
2021/11/05 08:36:01;;;;;;;5.05;2.08;;;9.50;99.90;;;;;;5067893;28;20025;-79
2021/11/05 08:38:27;;;;;;;5.88;2.13;;;9.60;99.90;;;;;;5048490;28;20102;-75
2021/11/05 08:40:54;;;;;;;5.20;2.08;;;9.60;99.90;;;;;;5041167;28;20041;-79
2021/11/05 08:43:23;;;;;;;2.63;1.45;;;9.60;99.90;;;;;;5035232;28;20053;-76
2021/11/05 08:45:50;;;;;;;6.10;1.88;;;9.50;99.90;;;;;;5028383;28;20375;-76
2021/11/05 08:48:17;;;;;;;4.00;2.05;;;9.50;99.90;;;;;;5026941;28;20141;-76
2021/11/05 08:50:43;;;;;;;12.77;3.05;;;9.50;99.90;;;;;;5026754;28;20468;-78
2021/11/05 08:53:08;;;;;;;6.03;2.40;;;9.60;99.90;;;;;;5043306;28;20057;-79
2021/11/05 08:55:37;;;;;;;3.05;1.75;;;9.70;99.90;;;;;;5045872;28;20044;-76
2021/11/05 08:58:03;;;;;;;8.13;2.55;;;9.60;99.90;;;;;;5046798;28;20025;-79
2021/11/05 09:00:34;;;;;;;3.83;2.05;;;9.60;99.90;;;;;;5041763;28;20057;-75
2021/11/05 09:03:01;;;;;;;3.80;1.42;;;9.70;99.90;;;;;;5038494;28;20029;-75
2021/11/05 09:05:28;;;;;;;5.25;2.08;;;9.70;99.90;;;;;;5033285;28;20081;-76
2021/11/05 09:07:54;;;;;;;4.13;2.13;;;9.80;99.90;;;;;;5029141;28;20057;-76
2021/11/05 09:10:20;;;;;;;5.00;1.70;;;9.80;99.90;;;;;;5041069;28;20029;-75
2021/11/05 09:12:46;;;;;;;11.07;2.53;;;9.80;99.90;;;;;;5044755;28;20064;-75
2021/11/05 09:15:17;;;;;;;4.68;2.05;;;9.90;99.90;;;;;;5039555;28;20061;-74
2021/11/05 09:17:44;;;;;;;3.30;1.88;;;9.90;99.90;;;;;;5047248;28;20045;-76
2021/11/05 09:20:11;;;;;;;2.85;1.63;;;10.00;99.90;;;;;;5045620;28;20049;-77
2021/11/05 09:22:37;;;;;;;2.63;1.50;;;10.10;99.90;;;;;;5037565;28;20100;-74
2021/11/05 09:25:10;;;;;;;5.05;1.73;;;10.30;99.90;;;;;;5044629;28;20036;-75
2021/11/05 09:27:36;;;;;;;3.20;1.75;;;10.40;99.90;;;;;;5044617;28;20038;-79
2021/11/05 09:30:08;;;;;;;13.38;1.90;;;10.60;99.90;;;;;;5044839;28;20029;-76
2021/11/05 09:32:36;;;;;;;5.78;1.83;;;10.80;99.90;;;;;;5047226;28;20079;-76
2021/11/05 09:35:02;;;;;;;3.95;1.58;;;10.90;99.90;;;;;;5046911;28;20021;-74
2021/11/05 09:37:28;;;;;;;3.03;1.73;;;11.00;99.90;;;;;;5045468;28;20473;-77
2021/11/05 09:39:54;;;;;;;3.03;1.27;;;11.00;99.90;;;;;;5047162;28;20075;-75
2021/11/05 09:42:19;;;;;;;3.65;1.42;;;11.20;99.90;;;;;;5045483;28;20474;-75
2021/11/05 09:44:46;;;;;;;2.75;1.50;;;11.30;99.90;;;;;;5045274;28;20030;-76
2021/11/05 09:47:14;;;;;;;3.20;1.45;;;11.40;99.90;;;;;;5045957;28;20493;-77
2021/11/05 09:49:41;;;;;;;2.88;1.58;;;11.70;99.90;;;;;;5040350;28;20029;-73
2021/11/05 09:52:06;;;;;;;8.77;1.88;;;12.00;99.90;;;;;;5046925;28;20052;-75
2021/11/05 09:54:34;;;;;;;2.65;1.52;;;12.30;99.90;;;;;;5047227;28;20025;-76
2021/11/05 09:57:02;;;;;;;2.60;1.48;;;12.40;99.90;;;;;;5046993;28;20032;-75
2021/11/05 09:59:29;;;;;;;7.63;1.95;;;12.50;99.90;;;;;;5045230;28;20586;-76
2021/11/05 10:01:58;;;;;;;2.70;1.50;;;12.60;99.90;;;;;;5028036;28;20089;-76
2021/11/05 10:04:23;;;;;;;4.80;0.88;;;12.60;99.90;;;;;;5026931;28;20488;-75
2021/11/05 10:07:09;;;;;;;3.00;1.70;;;12.50;99.90;;;;;;5033518;28;20032;-73
2021/11/05 10:09:44;;;;;;;2.55;1.35;;;12.40;99.90;;;;;;5046120;28;20029;-75
2021/11/05 10:12:14;;;;;;;2.50;1.10;;;12.30;99.90;;;;;;5045730;28;20026;-73
2021/11/05 10:14:41;;;;;;;2.08;0.90;;;12.20;99.90;;;;;;5046462;28;20481;-75
2021/11/05 10:17:31;;;;;;;1.65;1.02;;;12.20;99.90;;;;;;5033240;28;20041;-75
2021/11/05 10:20:07;;;;;;;1.63;0.75;;;12.20;99.90;;;;;;5042227;28;20061;-76
2021/11/05 10:22:47;;;;;;;2.08;1.27;;;12.40;99.90;;;;;;5045732;28;20042;-74
2021/11/05 10:25:24;;;;;;;3.03;1.45;;;12.50;99.90;;;;;;5038376;28;20041;-75
2021/11/05 10:28:06;;;;;;;2.05;1.08;;;12.40;99.90;;;;;;5036214;28;20195;-76
2021/11/05 10:30:50;;;;;;;3.08;1.10;;;12.40;99.90;;;;;;5035153;28;20155;-74
2021/11/05 10:33:19;;;;;;;4.72;0.82;;;12.30;99.90;;;;;;5045911;28;20048;-74
2021/11/05 10:35:47;;;;;;;4.68;1.08;;;12.10;99.90;;;;;;5045127;28;20373;-75
2021/11/05 10:38:15;;;;;;;1.77;0.73;;;12.00;99.90;;;;;;5044172;28;20038;-77
2021/11/05 10:40:53;;;;;;;2.60;0.95;;;12.00;99.90;;;;;;5045813;28;20159;-79
2021/11/05 10:43:45;;;;;;;4.97;0.80;;;11.80;99.90;;;;;;5045328;28;20075;-72
2021/11/05 10:46:32;;;;;;;1.42;0.90;;;11.60;99.90;;;;;;5044304;28;20147;-75
2021/11/05 10:49:18;;;;;;;3.40;0.80;;;11.70;99.90;;;;;;5039797;28;20124;-75
2021/11/05 10:51:44;;;;;;;1.50;0.70;;;11.60;99.90;;;;;;5044000;28;20112;-75
2021/11/05 10:54:10;;;;;;;2.22;0.68;;;11.60;99.90;;;;;;5041537;28;20454;-75
2021/11/05 10:56:39;;;;;;;1.42;0.93;;;11.50;99.90;;;;;;5041136;28;20040;-75
2021/11/05 10:59:11;;;;;;;1.67;0.90;;;11.50;99.90;;;;;;5035243;28;20033;-74
2021/11/05 11:01:41;;;;;;;2.60;0.88;;;11.50;99.90;;;;;;5028570;28;20055;-75
2021/11/05 11:04:10;;;;;;;1.17;0.70;;;11.60;99.90;;;;;;5036834;28;20479;-75
2021/11/05 11:06:41;;;;;;;2.40;0.73;;;11.60;99.90;;;;;;5034963;28;20116;-75
2021/11/05 11:09:13;;;;;;;2.53;0.68;;;11.60;99.90;;;;;;5041628;28;20485;-76
2021/11/05 11:11:48;;;;;;;0.73;0.52;;;11.70;99.90;;;;;;5044024;28;20033;-73
2021/11/05 11:14:22;;;;;;;4.97;0.93;;;11.70;99.90;;;;;;5044432;28;20029;-74
2021/11/05 11:16:56;;;;;;;13.43;1.25;;;11.90;99.90;;;;;;5060467;28;20048;-75
2021/11/05 11:19:28;;;;;;;1.77;0.90;;;12.10;99.90;;;;;;5054121;28;20365;-76
2021/11/05 11:22:01;;;;;;;1.10;0.50;;;12.20;99.90;;;;;;5028017;28;20081;-74
2021/11/05 11:24:32;;;;;;;2.17;0.70;;;12.20;99.90;;;;;;5043520;28;20052;-74
2021/11/05 11:26:59;;;;;;;1.23;0.73;;;12.10;99.90;;;;;;5041243;28;20033;-73
2021/11/05 11:29:27;;;;;;;0.57;0.40;;;12.10;99.90;;;;;;5062015;28;20156;-75
2021/11/05 11:31:57;;;;;;;1.15;0.60;;;12.00;99.90;;;;;;5045088;28;20021;-75
2021/11/05 11:34:25;;;;;;;9.50;0.52;;;12.10;99.90;;;;;;5031338;28;20049;-74
2021/11/05 11:36:54;;;;;;;5.28;1.02;;;12.20;99.90;;;;;;5039616;28;20112;-74
2021/11/05 11:39:22;;;;;;;11.70;0.98;;;12.40;99.90;;;;;;5035978;28;20021;-73
2021/11/05 11:41:49;;;;;;;1.20;0.60;;;12.50;99.90;;;;;;5043872;28;20037;-74
2021/11/05 11:44:20;;;;;;;1.38;0.50;;;12.50;99.90;;;;;;5036039;28;20021;-73
2021/11/05 11:47:05;;;;;;;0.88;0.50;;;12.60;99.90;;;;;;5050194;28;20065;-74
2021/11/05 11:49:38;;;;;;;3.65;1.15;;;12.60;99.90;;;;;;5040558;28;20678;-74
2021/11/05 11:52:07;;;;;;;0.45;0.38;;;12.70;99.90;;;;;;5033290;28;20030;-74
2021/11/05 11:54:37;;;;;;;4.13;1.15;;;12.70;99.90;;;;;;5038651;28;20036;-74
2021/11/05 11:57:22;;;;;;;0.28;0.20;;;12.60;99.90;;;;;;5036722;28;20407;-75
2021/11/05 12:00:04;;;;;;;2.17;0.35;;;12.70;99.90;;;;;;5024281;28;20030;-74
2021/11/05 12:02:41;;;;;;;3.72;0.32;;;12.70;99.90;;;;;;5024292;28;20034;-73
2021/11/05 12:05:21;;;;;;;0.30;0.10;;;12.70;99.90;;;;;;5024797;28;20025;-75
2021/11/05 12:08:15;;;;;;;2.00;0.40;;;12.70;99.90;;;;;;5035761;28;20089;-75
2021/11/05 12:10:44;;;;;;;1.95;0.20;;;12.70;99.90;;;;;;5022642;28;20110;-73
2021/11/05 12:13:35;;;;;;;4.03;0.60;;;13.10;99.90;;;;;;5023875;28;20037;-75
2021/11/05 12:16:19;;;;;;;2.65;0.25;;;13.70;99.90;;;;;;5040108;28;20045;-76
2021/11/05 12:19:11;;;;;;;0.65;0.22;;;14.20;99.90;;;;;;5051687;28;20783;-75
2021/11/05 12:22:08;;;;;;;0.55;0.28;;;14.50;99.90;;;;;;5032917;28;20042;-74
2021/11/05 12:24:34;;;;;;;8.98;0.90;;;14.80;99.90;;;;;;5044433;28;20040;-74
2021/11/05 12:27:27;;;;;;;0.65;0.38;;;15.00;99.90;;;;;;5044690;28;20034;-74
2021/11/05 12:30:12;;;;;;;0.32;0.32;;;15.20;99.90;;;;;;5031398;28;20054;-77
2021/11/05 12:32:39;;;;;;;3.10;0.40;;;15.40;99.90;;;;;;5054285;28;20561;-76
2021/11/05 12:35:06;;;;;;;2.83;0.45;;;15.60;99.90;;;;;;5049353;28;20033;-73
2021/11/05 12:37:39;;;;;;;0.35;0.25;;;15.70;99.90;;;;;;5061428;28;20052;-76
2021/11/05 12:40:44;;;;;;;0.47;0.23;;;15.80;99.90;;;;;;5061204;28;20081;-77
2021/11/05 12:43:38;;;;;;;1.05;0.40;;;16.20;99.90;;;;;;5030614;28;20462;-74
2021/11/05 12:46:16;;;;;;;0.47;0.22;;;16.60;99.90;;;;;;5037516;28;20079;-72
2021/11/05 12:49:00;;;;;;;0.65;0.40;;;17.20;99.90;;;;;;5043953;28;20025;-74
2021/11/05 12:51:29;;;;;;;1.50;0.50;;;17.30;99.90;;;;;;5041697;28;20037;-76
2021/11/05 12:53:58;;;;;;;1.50;0.40;;;17.20;99.90;;;;;;5036023;28;20026;-75
2021/11/05 12:56:24;;;;;;;0.85;0.57;;;16.80;99.90;;;;;;5023010;28;20098;-75